Time,TemperatureF,DewpointF,PressureIn,WindDirection,WindDirectionDegrees,WindSpeedMPH,WindSpeedGustMPH,Humidity,HourlyPrecipIn,Conditions,Clouds,dailyrainin,SoftwareType,DateUTC
2013-05-27 00:03:00,57.2,53.0,30.22,East,96,0.0,-999.0,85,-99.99,,,0.00,weatherlink.com 1.10,2013-05-27 04:03:00,
2013-05-27 00:18:00,56.6,53.0,30.22,East,96,0.0,-999.0,87,-99.99,,,0.00,weatherlink.com 1.10,2013-05-27 04:18:00,
2013-05-27 00:46:00,56.6,53.0,30.22,East,96,0.0,-999.0,87,-99.99,,,0.00,weatherlink.com 1.10,2013-05-27 04:46:00,
2013-05-27 00:48:00,56.2,53.0,30.22,East,96,0.0,-999.0,88,-99.99,,,0.00,weatherlink.com 1.10,2013-05-27 04:48:00,
2013-05-27 01:03:00,55.8,53.0,30.22,East,96,0.0,-999.0,89,-99.99,,,0.00,weatherlink.com 1.10,2013-05-27 05:03:00,
2013-05-27 01:18:00,55.5,52.0,30.23,East,96,0.0,-999.0,89,-99.99,,,0.00,weatherlink.com 1.10,2013-05-27 05:18:00,
2013-05-27 01:46:00,55.5,52.0,30.23,East,96,0.0,-999.0,89,-99.99,,,0.00,weatherlink.com 1.10,2013-05-27 05:46:00,
2013-05-27 02:03:00,54.7,52.0,30.23,East,96,0.0,-999.0,91,-99.99,,,0.00,weatherlink.com 1.10,2013-05-27 06:03:00,
2013-05-27 02:18:00,54.4,52.0,30.23,East,96,0.0,-999.0,91,-99.99,,,0.00,weatherlink.com 1.10,2013-05-27 06:18:00,
2013-05-27 02:46:00,54.4,52.0,30.23,East,96,0.0,-999.0,91,-99.99,,,0.00,weatherlink.com 1.10,2013-05-27 06:46:00,
2013-05-27 02:48:00,54.4,52.0,30.23,East,96,0.0,-999.0,91,-99.99,,,0.00,weatherlink.com 1.10,2013-05-27 06:48:00,
2013-05-27 03:18:00,53.3,51.0,30.23,East,96,0.0,-999.0,92,-99.99,,,0.00,weatherlink.com 1.10,2013-05-27 07:18:00,
2013-05-27 03:46:00,53.3,51.0,30.23,East,96,0.0,-999.0,92,-99.99,,,0.00,weatherlink.com 1.10,2013-05-27 07:46:00,
2013-05-27 04:03:00,52.9,51.0,30.23,East,96,0.0,-999.0,93,-99.99,,,0.00,weatherlink.com 1.10,2013-05-27 08:03:00,
2013-05-27 04:18:00,52.7,51.0,30.23,East,96,0.0,-999.0,93,-99.99,,,0.00,weatherlink.com 1.10,2013-05-27 08:18:00,
2013-05-27 04:46:00,52.7,51.0,30.23,East,96,0.0,-999.0,93,-99.99,,,0.00,weatherlink.com 1.10,2013-05-27 08:46:00,
2013-05-27 05:03:00,52.3,50.0,30.23,East,96,0.0,-999.0,93,-99.99,,,0.00,weatherlink.com 1.10,2013-05-27 09:03:00,
2013-05-27 05:18:00,52.2,51.0,30.23,East,96,0.0,-999.0,94,-99.99,,,0.00,weatherlink.com 1.10,2013-05-27 09:18:00,
2013-05-27 05:46:00,52.2,51.0,30.23,East,96,0.0,-999.0,94,-99.99,,,0.00,weatherlink.com 1.10,2013-05-27 09:46:00,
2013-05-27 06:03:00,51.9,50.0,30.26,East,96,0.0,-999.0,93,-99.99,,,0.00,weatherlink.com 1.10,2013-05-27 10:03:00,
2013-05-27 06:18:00,51.8,50.0,30.26,East,96,0.0,-999.0,94,-99.99,,,0.00,weatherlink.com 1.10,2013-05-27 10:18:00,
2013-05-27 06:46:00,51.8,50.0,30.26,East,96,0.0,-999.0,94,-99.99,,,0.00,weatherlink.com 1.10,2013-05-27 10:46:00,
2013-05-27 07:03:00,52.1,51.0,30.27,East,96,0.0,-999.0,95,-99.99,,,0.00,weatherlink.com 1.10,2013-05-27 11:03:00,
2013-05-27 07:18:00,52.4,51.0,30.28,East,96,0.0,-999.0,95,-99.99,,,0.00,weatherlink.com 1.10,2013-05-27 11:18:00,
2013-05-27 07:46:00,52.6,51.0,30.28,East,96,0.0,-999.0,95,-99.99,,,0.00,weatherlink.com 1.10,2013-05-27 11:46:00,
2013-05-27 08:03:00,55.4,54.0,30.29,East,96,0.0,-999.0,96,-99.99,,,0.00,weatherlink.com 1.10,2013-05-27 12:03:00,
2013-05-27 08:18:00,57.1,54.0,30.28,East,96,0.0,-999.0,90,-99.99,,,0.00,weatherlink.com 1.10,2013-05-27 12:18:00,
2013-05-27 08:46:00,57.5,54.0,30.28,East,96,0.0,-999.0,89,-99.99,,,0.00,weatherlink.com 1.10,2013-05-27 12:46:00,
2013-05-27 09:03:00,61.5,55.0,30.29,East,96,0.0,-999.0,79,-99.99,,,0.00,weatherlink.com 1.10,2013-05-27 13:03:00,
2013-05-27 09:18:00,62.5,56.0,30.29,East,96,0.0,-999.0,78,-99.99,,,0.00,weatherlink.com 1.10,2013-05-27 13:18:00,
2013-05-27 09:46:00,62.7,56.0,30.29,East,96,0.0,-999.0,78,-99.99,,,0.00,weatherlink.com 1.10,2013-05-27 13:46:00,
2013-05-27 10:03:00,64.5,57.0,30.28,East,96,0.0,-999.0,77,-99.99,,,0.00,weatherlink.com 1.10,2013-05-27 14:03:00,
2013-05-27 10:18:00,65.7,57.0,30.27,East,96,0.0,-999.0,74,-99.99,,,0.00,weatherlink.com 1.10,2013-05-27 14:18:00,
2013-05-27 10:46:00,66.0,57.0,30.27,East,96,0.0,-999.0,73,-99.99,,,0.00,weatherlink.com 1.10,2013-05-27 14:46:00,
2013-05-27 11:03:00,69.3,56.0,30.28,East,96,0.0,-999.0,63,-99.99,,,0.00,weatherlink.com 1.10,2013-05-27 15:03:00,
2013-05-27 11:18:00,70.0,56.0,30.28,East,96,0.0,-999.0,62,-99.99,,,0.00,weatherlink.com 1.10,2013-05-27 15:18:00,
2013-05-27 11:46:00,70.1,57.0,30.28,East,96,0.0,-999.0,63,-99.99,,,0.00,weatherlink.com 1.10,2013-05-27 15:46:00,
2013-05-27 12:03:00,72.2,56.0,30.27,East,96,0.0,-999.0,58,-99.99,,,0.00,weatherlink.com 1.10,2013-05-27 16:03:00,
2013-05-27 12:18:00,73.0,54.0,30.26,East,96,0.0,-999.0,52,-99.99,,,0.00,weatherlink.com 1.10,2013-05-27 16:18:00,
2013-05-27 12:46:00,73.2,55.0,30.26,East,96,0.0,-999.0,54,-99.99,,,0.00,weatherlink.com 1.10,2013-05-27 16:46:00,
2013-05-27 13:03:00,74.8,55.0,30.25,East,93,1.0,-999.0,50,-99.99,,,0.00,weatherlink.com 1.10,2013-05-27 17:03:00,
2013-05-27 13:18:00,75.6,54.0,30.25,ESE,102,1.0,-999.0,48,-99.99,,,0.00,weatherlink.com 1.10,2013-05-27 17:18:00,
2013-05-27 13:46:00,75.7,55.0,30.25,WSW,240,0.0,-999.0,48,-99.99,,,0.00,weatherlink.com 1.10,2013-05-27 17:46:00,
2013-05-27 14:03:00,76.9,53.0,30.24,SW,231,0.0,-999.0,44,-99.99,,,0.00,weatherlink.com 1.10,2013-05-27 18:03:00,
2013-05-27 14:18:00,77.3,54.0,30.24,ESE,104,1.0,-999.0,44,-99.99,,,0.00,weatherlink.com 1.10,2013-05-27 18:18:00,
2013-05-27 14:46:00,77.6,53.0,30.23,East,86,1.0,-999.0,43,-99.99,,,0.00,weatherlink.com 1.10,2013-05-27 18:46:00,
2013-05-27 15:03:00,77.8,55.0,30.22,East,86,0.0,-999.0,46,-99.99,,,0.00,weatherlink.com 1.10,2013-05-27 19:03:00,
2013-05-27 15:18:00,77.8,56.0,30.22,ESE,120,1.0,-999.0,47,-99.99,,,0.00,weatherlink.com 1.10,2013-05-27 19:18:00,
2013-05-27 15:46:00,78.1,56.0,30.22,ESE,105,0.0,-999.0,47,-99.99,,,0.00,weatherlink.com 1.10,2013-05-27 19:46:00,
2013-05-27 16:03:00,78.5,55.0,30.20,NW,307,2.0,-999.0,45,-99.99,,,0.00,weatherlink.com 1.10,2013-05-27 20:03:00,
2013-05-27 16:18:00,78.9,54.0,30.19,ENE,76,1.0,-999.0,42,-99.99,,,0.00,weatherlink.com 1.10,2013-05-27 20:18:00,
2013-05-27 16:46:00,78.9,54.0,30.19,East,81,1.0,-999.0,42,-99.99,,,0.00,weatherlink.com 1.10,2013-05-27 20:46:00,
2013-05-27 17:03:00,78.6,54.0,30.18,ESE,115,0.0,-999.0,43,-99.99,,,0.00,weatherlink.com 1.10,2013-05-27 21:03:00,
2013-05-27 17:18:00,78.8,54.0,30.18,East,92,0.0,-999.0,43,-99.99,,,0.00,weatherlink.com 1.10,2013-05-27 21:18:00,
2013-05-27 17:46:00,78.8,55.0,30.18,East,92,0.0,-999.0,44,-99.99,,,0.00,weatherlink.com 1.10,2013-05-27 21:46:00,
2013-05-27 18:03:00,78.5,53.0,30.18,East,85,0.0,-999.0,42,-99.99,,,0.00,weatherlink.com 1.10,2013-05-27 22:03:00,
2013-05-27 18:18:00,78.2,54.0,30.17,East,85,0.0,-999.0,43,-99.99,,,0.00,weatherlink.com 1.10,2013-05-27 22:18:00,
2013-05-27 18:46:00,78.1,54.0,30.17,East,85,1.0,-999.0,43,-99.99,,,0.00,weatherlink.com 1.10,2013-05-27 22:46:00,
2013-05-27 19:03:00,77.3,54.0,30.17,East,85,0.0,-999.0,44,-99.99,,,0.00,weatherlink.com 1.10,2013-05-27 23:03:00,
2013-05-27 19:18:00,76.9,54.0,30.18,East,85,0.0,-999.0,46,-99.99,,,0.00,weatherlink.com 1.10,2013-05-27 23:18:00,
2013-05-27 19:46:00,76.7,54.0,30.18,East,85,0.0,-999.0,46,-99.99,,,0.00,weatherlink.com 1.10,2013-05-27 23:46:00,
2013-05-27 20:03:00,75.1,57.0,30.18,East,85,0.0,-999.0,53,-99.99,,,0.00,weatherlink.com 1.10,2013-05-28 00:03:00,
2013-05-27 20:18:00,73.9,58.0,30.17,East,85,0.0,-999.0,57,-99.99,,,0.00,weatherlink.com 1.10,2013-05-28 00:18:00,
2013-05-27 20:46:00,73.7,58.0,30.17,East,85,0.0,-999.0,58,-99.99,,,0.00,weatherlink.com 1.10,2013-05-28 00:46:00,
2013-05-27 21:03:00,71.0,56.0,30.16,East,85,0.0,-999.0,59,-99.99,,,0.00,weatherlink.com 1.10,2013-05-28 01:03:00,
2013-05-27 21:18:00,70.5,56.0,30.16,East,85,0.0,-999.0,60,-99.99,,,0.00,weatherlink.com 1.10,2013-05-28 01:18:00,
2013-05-27 21:46:00,70.4,56.0,30.16,East,85,0.0,-999.0,60,-99.99,,,0.00,weatherlink.com 1.10,2013-05-28 01:46:00,
2013-05-27 22:03:00,68.9,57.0,30.18,East,85,0.0,-999.0,66,-99.99,,,0.00,weatherlink.com 1.10,2013-05-28 02:03:00,
2013-05-27 22:18:00,68.2,57.0,30.19,East,85,0.0,-999.0,68,-99.99,,,0.00,weatherlink.com 1.10,2013-05-28 02:18:00,
2013-05-27 22:46:00,67.9,57.0,30.20,East,85,0.0,-999.0,68,-99.99,,,0.00,weatherlink.com 1.10,2013-05-28 02:46:00,
2013-05-27 23:03:00,65.7,56.0,30.20,East,85,0.0,-999.0,72,-99.99,,,0.00,weatherlink.com 1.10,2013-05-28 03:03:00,
2013-05-27 23:18:00,65.2,57.0,30.21,East,85,0.0,-999.0,74,-99.99,,,0.00,weatherlink.com 1.10,2013-05-28 03:18:00,
2013-05-27 23:45:00,65.1,57.0,30.21,East,85,0.0,-999.0,75,-99.99,,,0.00,weatherlink.com 1.10,2013-05-28 03:45:00,